sensor_id;sensor_type;location;lat;lon;timestamp;temperature;humidity
9949;DHT22;5013;51.840;8.276;2022-12-15T00:02:03;-7.00;1.00
9949;DHT22;5013;51.840;8.276;2022-12-15T00:04:47;-6.90;99.90
9949;DHT22;5013;51.840;8.276;2022-12-15T00:07:31;-7.00;1.00
9949;DHT22;5013;51.840;8.276;2022-12-15T00:10:16;-7.10;1.00
9949;DHT22;5013;51.840;8.276;2022-12-15T00:13:00;-7.10;99.90
9949;DHT22;5013;51.840;8.276;2022-12-15T00:15:46;-7.10;99.90
9949;DHT22;5013;51.840;8.276;2022-12-15T00:18:30;-7.20;99.90
9949;DHT22;5013;51.840;8.276;2022-12-15T00:21:14;-7.30;1.00
9949;DHT22;5013;51.840;8.276;2022-12-15T00:23:58;-7.20;1.00
9949;DHT22;5013;51.840;8.276;2022-12-15T00:26:42;-7.20;99.90
9949;DHT22;5013;51.840;8.276;2022-12-15T00:29:27;-7.10;1.00
9949;DHT22;5013;51.840;8.276;2022-12-15T00:32:11;-7.10;1.00
9949;DHT22;5013;51.840;8.276;2022-12-15T00:34:55;-7.20;55.40
9949;DHT22;5013;51.840;8.276;2022-12-15T00:37:39;-7.10;1.00
9949;DHT22;5013;51.840;8.276;2022-12-15T00:40:23;-7.10;99.90
9949;DHT22;5013;51.840;8.276;2022-12-15T00:42:49;-7.10;1.00
9949;DHT22;5013;51.840;8.276;2022-12-15T00:45:14;-7.20;99.90
9949;DHT22;5013;51.840;8.276;2022-12-15T00:47:40;-7.10;99.90
9949;DHT22;5013;51.840;8.276;2022-12-15T00:50:06;-7.10;99.90
9949;DHT22;5013;51.840;8.276;2022-12-15T00:52:50;-7.10;99.90
9949;DHT22;5013;51.840;8.276;2022-12-15T00:55:34;-7.10;1.00
9949;DHT22;5013;51.840;8.276;2022-12-15T00:58:18;-7.10;99.90
9949;DHT22;5013;51.840;8.276;2022-12-15T01:01:09;-7.20;99.90
9949;DHT22;5013;51.840;8.276;2022-12-15T01:03:54;-7.20;99.90
9949;DHT22;5013;51.840;8.276;2022-12-15T01:06:39;-7.20;1.00
9949;DHT22;5013;51.840;8.276;2022-12-15T01:09:23;-7.30;99.90
9949;DHT22;5013;51.840;8.276;2022-12-15T01:12:09;-7.30;99.90
9949;DHT22;5013;51.840;8.276;2022-12-15T01:14:53;-7.20;1.00
9949;DHT22;5013;51.840;8.276;2022-12-15T01:17:37;-7.40;99.90
9949;DHT22;5013;51.840;8.276;2022-12-15T01:20:21;-7.30;1.00
9949;DHT22;5013;51.840;8.276;2022-12-15T01:22:51;-7.20;1.00
9949;DHT22;5013;51.840;8.276;2022-12-15T01:25:18;-7.20;99.90
9949;DHT22;5013;51.840;8.276;2022-12-15T01:27:44;-7.20;99.90
9949;DHT22;5013;51.840;8.276;2022-12-15T01:30:13;-7.20;1.00
9949;DHT22;5013;51.840;8.276;2022-12-15T01:32:39;-7.30;99.90
9949;DHT22;5013;51.840;8.276;2022-12-15T01:35:05;-7.20;88.40
9949;DHT22;5013;51.840;8.276;2022-12-15T01:37:32;-7.20;99.90
9949;DHT22;5013;51.840;8.276;2022-12-15T01:39:58;-7.10;99.90
9949;DHT22;5013;51.840;8.276;2022-12-15T01:42:43;-7.10;99.90
9949;DHT22;5013;51.840;8.276;2022-12-15T01:48:00;-7.20;99.90
9949;DHT22;5013;51.840;8.276;2022-12-15T01:50:27;-7.20;1.00
9949;DHT22;5013;51.840;8.276;2022-12-15T01:52:54;-7.10;1.00
9949;DHT22;5013;51.840;8.276;2022-12-15T01:55:20;-7.10;1.00
9949;DHT22;5013;51.840;8.276;2022-12-15T01:57:49;-7.00;1.00
9949;DHT22;5013;51.840;8.276;2022-12-15T02:00:16;-7.00;1.00
9949;DHT22;5013;51.840;8.276;2022-12-15T02:02:42;-7.10;1.00
9949;DHT22;5013;51.840;8.276;2022-12-15T02:05:09;-7.20;1.00
9949;DHT22;5013;51.840;8.276;2022-12-15T02:07:35;-7.20;99.90
9949;DHT22;5013;51.840;8.276;2022-12-15T02:10:03;-7.20;1.00
9949;DHT22;5013;51.840;8.276;2022-12-15T02:15:47;-7.10;99.90
9949;DHT22;5013;51.840;8.276;2022-12-15T02:35:40;-7.10;1.00
9949;DHT22;5013;51.840;8.276;2022-12-15T02:38:08;-7.00;99.90
9949;DHT22;5013;51.840;8.276;2022-12-15T02:40:35;-6.90;80.10
9949;DHT22;5013;51.840;8.276;2022-12-15T02:43:03;-6.80;36.00
9949;DHT22;5013;51.840;8.276;2022-12-15T02:46:20;-6.60;99.90
9949;DHT22;5013;51.840;8.276;2022-12-15T02:48:38;-6.40;99.90
9949;DHT22;5013;51.840;8.276;2022-12-15T02:56:44;-6.10;99.90
9949;DHT22;5013;51.840;8.276;2022-12-15T02:59:21;-6.00;99.90
9949;DHT22;5013;51.840;8.276;2022-12-15T03:01:56;-5.90;99.90
9949;DHT22;5013;51.840;8.276;2022-12-15T03:04:24;-5.80;1.00
9949;DHT22;5013;51.840;8.276;2022-12-15T03:06:56;-5.80;1.00
9949;DHT22;5013;51.840;8.276;2022-12-15T03:09:22;-5.80;99.90
9949;DHT22;5013;51.840;8.276;2022-12-15T03:15:10;-5.60;1.00
9949;DHT22;5013;51.840;8.276;2022-12-15T03:17:36;-5.50;1.00
9949;DHT22;5013;51.840;8.276;2022-12-15T03:20:03;-5.50;1.00
9949;DHT22;5013;51.840;8.276;2022-12-15T03:22:29;-5.40;1.00
9949;DHT22;5013;51.840;8.276;2022-12-15T03:24:54;-5.50;1.00
9949;DHT22;5013;51.840;8.276;2022-12-15T03:27:20;-5.50;1.00
9949;DHT22;5013;51.840;8.276;2022-12-15T03:29:46;-5.50;1.00
9949;DHT22;5013;51.840;8.276;2022-12-15T03:32:11;-5.30;1.00
9949;DHT22;5013;51.840;8.276;2022-12-15T03:34:37;-5.40;1.00
9949;DHT22;5013;51.840;8.276;2022-12-15T03:37:02;-5.20;1.00
9949;DHT22;5013;51.840;8.276;2022-12-15T03:39:28;-5.20;1.00
9949;DHT22;5013;51.840;8.276;2022-12-15T03:41:53;-5.20;1.00
9949;DHT22;5013;51.840;8.276;2022-12-15T03:44:19;-5.20;1.00
9949;DHT22;5013;51.840;8.276;2022-12-15T03:46:45;-5.10;1.00
9949;DHT22;5013;51.840;8.276;2022-12-15T03:49:10;-5.20;1.00
9949;DHT22;5013;51.840;8.276;2022-12-15T03:51:36;-5.30;1.00
9949;DHT22;5013;51.840;8.276;2022-12-15T03:54:02;-5.30;1.00
9949;DHT22;5013;51.840;8.276;2022-12-15T03:56:27;-5.30;1.00
9949;DHT22;5013;51.840;8.276;2022-12-15T03:58:53;-5.30;1.00
9949;DHT22;5013;51.840;8.276;2022-12-15T04:01:32;-5.30;1.00
9949;DHT22;5013;51.840;8.276;2022-12-15T04:03:58;-5.30;1.00
9949;DHT22;5013;51.840;8.276;2022-12-15T04:06:24;-5.30;1.00
9949;DHT22;5013;51.840;8.276;2022-12-15T04:08:50;-5.30;1.00
9949;DHT22;5013;51.840;8.276;2022-12-15T04:11:15;-5.30;1.00
9949;DHT22;5013;51.840;8.276;2022-12-15T04:13:41;-5.30;1.00
9949;DHT22;5013;51.840;8.276;2022-12-15T04:16:07;-5.30;1.00
9949;DHT22;5013;51.840;8.276;2022-12-15T04:18:33;-5.30;1.00
9949;DHT22;5013;51.840;8.276;2022-12-15T04:20:59;-5.30;1.00
9949;DHT22;5013;51.840;8.276;2022-12-15T04:23:24;-5.40;1.00
9949;DHT22;5013;51.840;8.276;2022-12-15T04:25:50;-5.30;1.00
9949;DHT22;5013;51.840;8.276;2022-12-15T04:28:34;-5.30;1.00
9949;DHT22;5013;51.840;8.276;2022-12-15T04:31:24;-5.20;1.00
9949;DHT22;5013;51.840;8.276;2022-12-15T04:34:13;-5.00;1.00
9949;DHT22;5013;51.840;8.276;2022-12-15T04:36:58;-4.90;1.00
9949;DHT22;5013;51.840;8.276;2022-12-15T04:39:52;-4.80;1.00
9949;DHT22;5013;51.840;8.276;2022-12-15T04:42:41;-4.70;1.00
9949;DHT22;5013;51.840;8.276;2022-12-15T04:45:26;-4.70;1.00
9949;DHT22;5013;51.840;8.276;2022-12-15T04:48:10;-4.80;1.00
9949;DHT22;5013;51.840;8.276;2022-12-15T04:50:55;-4.90;1.00
9949;DHT22;5013;51.840;8.276;2022-12-15T04:53:39;-4.90;1.00
9949;DHT22;5013;51.840;8.276;2022-12-15T04:56:25;-4.90;1.00
9949;DHT22;5013;51.840;8.276;2022-12-15T04:59:08;-4.90;1.00
9949;DHT22;5013;51.840;8.276;2022-12-15T05:01:52;-4.90;1.00
9949;DHT22;5013;51.840;8.276;2022-12-15T05:04:36;-4.80;1.00
9949;DHT22;5013;51.840;8.276;2022-12-15T05:07:20;-4.80;1.00
9949;DHT22;5013;51.840;8.276;2022-12-15T05:10:07;-4.80;1.00
9949;DHT22;5013;51.840;8.276;2022-12-15T05:12:51;-4.90;1.00
9949;DHT22;5013;51.840;8.276;2022-12-15T05:15:34;-5.00;1.00
9949;DHT22;5013;51.840;8.276;2022-12-15T05:18:19;-5.20;1.00
9949;DHT22;5013;51.840;8.276;2022-12-15T05:21:04;-5.30;1.00
9949;DHT22;5013;51.840;8.276;2022-12-15T05:23:48;-5.30;1.00
9949;DHT22;5013;51.840;8.276;2022-12-15T05:26:32;-5.30;1.00
9949;DHT22;5013;51.840;8.276;2022-12-15T05:29:16;-5.20;1.00
9949;DHT22;5013;51.840;8.276;2022-12-15T05:32:00;-5.30;1.00
9949;DHT22;5013;51.840;8.276;2022-12-15T05:34:28;-5.40;1.00
9949;DHT22;5013;51.840;8.276;2022-12-15T05:36:56;-5.40;1.00
9949;DHT22;5013;51.840;8.276;2022-12-15T05:39:22;-5.50;1.00
9949;DHT22;5013;51.840;8.276;2022-12-15T05:41:49;-5.50;1.00
9949;DHT22;5013;51.840;8.276;2022-12-15T05:44:14;-5.50;1.00
9949;DHT22;5013;51.840;8.276;2022-12-15T05:46:41;-5.40;1.00
9949;DHT22;5013;51.840;8.276;2022-12-15T05:49:09;-5.60;1.00
9949;DHT22;5013;51.840;8.276;2022-12-15T05:51:40;-5.70;1.00
9949;DHT22;5013;51.840;8.276;2022-12-15T05:54:07;-5.70;99.90
9949;DHT22;5013;51.840;8.276;2022-12-15T05:56:33;-5.90;99.90
9949;DHT22;5013;51.840;8.276;2022-12-15T05:59:00;-6.00;99.90
9949;DHT22;5013;51.840;8.276;2022-12-15T06:01:27;-6.00;1.00
9949;DHT22;5013;51.840;8.276;2022-12-15T06:03:53;-5.90;1.00
9949;DHT22;5013;51.840;8.276;2022-12-15T06:06:19;-5.80;1.00
9949;DHT22;5013;51.840;8.276;2022-12-15T06:08:44;-5.80;1.00
9949;DHT22;5013;51.840;8.276;2022-12-15T06:11:14;-5.80;1.00
9949;DHT22;5013;51.840;8.276;2022-12-15T06:13:41;-5.90;99.90
9949;DHT22;5013;51.840;8.276;2022-12-15T06:16:10;-6.10;54.90
9949;DHT22;5013;51.840;8.276;2022-12-15T06:18:48;-6.00;1.00
9949;DHT22;5013;51.840;8.276;2022-12-15T06:21:17;-5.90;1.00
9949;DHT22;5013;51.840;8.276;2022-12-15T06:23:43;-5.80;1.00
9949;DHT22;5013;51.840;8.276;2022-12-15T06:26:32;-5.80;1.00
9949;DHT22;5013;51.840;8.276;2022-12-15T06:28:58;-5.70;1.00
9949;DHT22;5013;51.840;8.276;2022-12-15T06:31:27;-5.80;1.00
9949;DHT22;5013;51.840;8.276;2022-12-15T06:33:54;-5.90;99.90
9949;DHT22;5013;51.840;8.276;2022-12-15T06:36:20;-5.80;1.00
9949;DHT22;5013;51.840;8.276;2022-12-15T06:38:48;-5.80;1.00
9949;DHT22;5013;51.840;8.276;2022-12-15T06:41:16;-5.90;1.00
9949;DHT22;5013;51.840;8.276;2022-12-15T06:43:47;-5.90;1.00
9949;DHT22;5013;51.840;8.276;2022-12-15T06:46:12;-5.90;1.00
9949;DHT22;5013;51.840;8.276;2022-12-15T06:48:38;-6.00;1.00
9949;DHT22;5013;51.840;8.276;2022-12-15T06:51:06;-5.90;1.00
9949;DHT22;5013;51.840;8.276;2022-12-15T06:53:36;-5.90;1.00
9949;DHT22;5013;51.840;8.276;2022-12-15T06:56:06;-5.80;1.00
9949;DHT22;5013;51.840;8.276;2022-12-15T06:58:33;-5.80;1.00
9949;DHT22;5013;51.840;8.276;2022-12-15T07:01:04;-5.80;1.00
9949;DHT22;5013;51.840;8.276;2022-12-15T07:03:30;-5.80;1.00
9949;DHT22;5013;51.840;8.276;2022-12-15T07:06:04;-5.90;1.00
9949;DHT22;5013;51.840;8.276;2022-12-15T07:08:30;-5.90;1.00
9949;DHT22;5013;51.840;8.276;2022-12-15T07:10:56;-5.80;1.00
9949;DHT22;5013;51.840;8.276;2022-12-15T07:13:22;-5.80;1.00
9949;DHT22;5013;51.840;8.276;2022-12-15T07:16:06;-5.80;1.00
9949;DHT22;5013;51.840;8.276;2022-12-15T07:18:32;-6.00;99.90
9949;DHT22;5013;51.840;8.276;2022-12-15T07:21:05;-6.10;1.00
9949;DHT22;5013;51.840;8.276;2022-12-15T07:23:33;-6.10;1.00
9949;DHT22;5013;51.840;8.276;2022-12-15T07:26:05;-6.00;1.00
9949;DHT22;5013;51.840;8.276;2022-12-15T07:28:32;-6.00;1.00
9949;DHT22;5013;51.840;8.276;2022-12-15T07:31:06;-6.00;1.00
9949;DHT22;5013;51.840;8.276;2022-12-15T07:33:32;-6.10;1.00
9949;DHT22;5013;51.840;8.276;2022-12-15T07:35:59;-6.10;1.00
9949;DHT22;5013;51.840;8.276;2022-12-15T07:38:26;-6.00;1.00
9949;DHT22;5013;51.840;8.276;2022-12-15T07:40:51;-6.10;1.00
9949;DHT22;5013;51.840;8.276;2022-12-15T07:43:17;-6.10;1.00
9949;DHT22;5013;51.840;8.276;2022-12-15T07:45:43;-6.10;1.00
9949;DHT22;5013;51.840;8.276;2022-12-15T07:48:08;-6.00;1.00
9949;DHT22;5013;51.840;8.276;2022-12-15T07:50:37;-6.00;1.00
9949;DHT22;5013;51.840;8.276;2022-12-15T07:53:04;-6.00;1.00
9949;DHT22;5013;51.840;8.276;2022-12-15T07:55:30;-6.00;1.00
9949;DHT22;5013;51.840;8.276;2022-12-15T07:57:55;-5.90;1.00
9949;DHT22;5013;51.840;8.276;2022-12-15T08:03:47;-5.90;1.00
9949;DHT22;5013;51.840;8.276;2022-12-15T08:06:14;-5.90;1.00
9949;DHT22;5013;51.840;8.276;2022-12-15T08:08:40;-5.90;1.00
9949;DHT22;5013;51.840;8.276;2022-12-15T08:11:07;-5.90;1.00
9949;DHT22;5013;51.840;8.276;2022-12-15T08:13:38;-5.90;1.00
9949;DHT22;5013;51.840;8.276;2022-12-15T08:16:05;-5.80;1.00
9949;DHT22;5013;51.840;8.276;2022-12-15T08:18:30;-5.80;1.00
9949;DHT22;5013;51.840;8.276;2022-12-15T08:21:01;-5.70;1.00
9949;DHT22;5013;51.840;8.276;2022-12-15T08:23:27;-5.70;1.00
9949;DHT22;5013;51.840;8.276;2022-12-15T08:25:53;-5.70;1.00
9949;DHT22;5013;51.840;8.276;2022-12-15T08:28:19;-5.70;1.00
9949;DHT22;5013;51.840;8.276;2022-12-15T08:30:45;-5.60;1.00
9949;DHT22;5013;51.840;8.276;2022-12-15T08:33:10;-5.60;1.00
9949;DHT22;5013;51.840;8.276;2022-12-15T08:35:38;-5.50;1.00
9949;DHT22;5013;51.840;8.276;2022-12-15T08:38:04;-5.50;1.00
9949;DHT22;5013;51.840;8.276;2022-12-15T08:40:30;-5.40;1.00
9949;DHT22;5013;51.840;8.276;2022-12-15T08:42:55;-5.40;1.00
9949;DHT22;5013;51.840;8.276;2022-12-15T08:45:21;-5.30;1.00
9949;DHT22;5013;51.840;8.276;2022-12-15T08:47:47;-5.30;1.00
9949;DHT22;5013;51.840;8.276;2022-12-15T08:50:12;-5.20;1.00
9949;DHT22;5013;51.840;8.276;2022-12-15T08:52:38;-5.10;1.00
9949;DHT22;5013;51.840;8.276;2022-12-15T08:55:08;-5.10;99.90
9949;DHT22;5013;51.840;8.276;2022-12-15T08:57:36;-5.10;99.90
9949;DHT22;5013;51.840;8.276;2022-12-15T09:00:03;-5.00;1.00
9949;DHT22;5013;51.840;8.276;2022-12-15T09:02:29;-5.00;1.00
9949;DHT22;5013;51.840;8.276;2022-12-15T09:04:56;-4.90;1.00
9949;DHT22;5013;51.840;8.276;2022-12-15T09:07:21;-4.80;1.00
9949;DHT22;5013;51.840;8.276;2022-12-15T09:09:47;-4.80;1.00
9949;DHT22;5013;51.840;8.276;2022-12-15T09:12:13;-4.70;99.90
9949;DHT22;5013;51.840;8.276;2022-12-15T09:14:38;-4.60;99.90
9949;DHT22;5013;51.840;8.276;2022-12-15T09:17:04;-4.50;99.90
9949;DHT22;5013;51.840;8.276;2022-12-15T09:19:29;-4.50;1.00
9949;DHT22;5013;51.840;8.276;2022-12-15T09:21:55;-4.40;99.90
9949;DHT22;5013;51.840;8.276;2022-12-15T09:24:21;-4.30;1.00
9949;DHT22;5013;51.840;8.276;2022-12-15T09:26:48;-4.30;1.00
9949;DHT22;5013;51.840;8.276;2022-12-15T09:29:14;-4.20;99.90
9949;DHT22;5013;51.840;8.276;2022-12-15T09:31:40;-4.10;1.00
9949;DHT22;5013;51.840;8.276;2022-12-15T09:34:12;-4.10;99.90
9949;DHT22;5013;51.840;8.276;2022-12-15T09:36:39;-4.00;99.90
9949;DHT22;5013;51.840;8.276;2022-12-15T09:39:05;-3.90;1.00
9949;DHT22;5013;51.840;8.276;2022-12-15T09:41:32;-3.90;1.00
9949;DHT22;5013;51.840;8.276;2022-12-15T09:44:03;-3.80;50.80
9949;DHT22;5013;51.840;8.276;2022-12-15T09:47:10;-3.70;1.00
9949;DHT22;5013;51.840;8.276;2022-12-15T09:54:59;-3.30;1.00
9949;DHT22;5013;51.840;8.276;2022-12-15T09:57:36;-3.20;1.00
9949;DHT22;5013;51.840;8.276;2022-12-15T10:00:42;-3.10;1.00
9949;DHT22;5013;51.840;8.276;2022-12-15T10:05:53;-2.90;1.00
9949;DHT22;5013;51.840;8.276;2022-12-15T10:08:19;-2.80;9.70
9949;DHT22;5013;51.840;8.276;2022-12-15T10:10:48;-2.70;99.90
9949;DHT22;5013;51.840;8.276;2022-12-15T10:13:24;-2.60;1.00
9949;DHT22;5013;51.840;8.276;2022-12-15T10:16:12;-2.60;99.90
9949;DHT22;5013;51.840;8.276;2022-12-15T10:18:55;-2.50;76.90
9949;DHT22;5013;51.840;8.276;2022-12-15T10:21:26;-2.50;96.00
9949;DHT22;5013;51.840;8.276;2022-12-15T10:23:55;-2.40;10.20
9949;DHT22;5013;51.840;8.276;2022-12-15T10:26:25;-2.30;1.00
9949;DHT22;5013;51.840;8.276;2022-12-15T10:29:05;-2.30;1.00
9949;DHT22;5013;51.840;8.276;2022-12-15T10:34:16;-2.10;1.00
9949;DHT22;5013;51.840;8.276;2022-12-15T10:36:49;-2.10;1.00
9949;DHT22;5013;51.840;8.276;2022-12-15T10:39:15;-2.00;1.00
9949;DHT22;5013;51.840;8.276;2022-12-15T10:41:42;-2.00;1.00
9949;DHT22;5013;51.840;8.276;2022-12-15T10:44:24;-2.00;1.00
9949;DHT22;5013;51.840;8.276;2022-12-15T10:47:14;-1.90;1.00
9949;DHT22;5013;51.840;8.276;2022-12-15T10:49:41;-1.80;1.00
9949;DHT22;5013;51.840;8.276;2022-12-15T10:52:25;-1.80;1.00
9949;DHT22;5013;51.840;8.276;2022-12-15T10:54:53;-1.70;1.00
9949;DHT22;5013;51.840;8.276;2022-12-15T10:57:28;-1.60;99.90
9949;DHT22;5013;51.840;8.276;2022-12-15T11:02:37;-1.50;50.60
9949;DHT22;5013;51.840;8.276;2022-12-15T11:10:28;-1.20;1.00
9949;DHT22;5013;51.840;8.276;2022-12-15T11:13:18;-1.00;1.00
9949;DHT22;5013;51.840;8.276;2022-12-15T11:15:48;-0.90;99.90
9949;DHT22;5013;51.840;8.276;2022-12-15T11:18:26;-0.80;1.00
9949;DHT22;5013;51.840;8.276;2022-12-15T11:21:00;-0.80;99.90
9949;DHT22;5013;51.840;8.276;2022-12-15T11:31:46;-0.60;27.60
9949;DHT22;5013;51.840;8.276;2022-12-15T11:34:18;-0.50;99.90
9949;DHT22;5013;51.840;8.276;2022-12-15T11:36:52;-0.50;99.90
9949;DHT22;5013;51.840;8.276;2022-12-15T11:39:44;-0.40;99.90
9949;DHT22;5013;51.840;8.276;2022-12-15T11:47:50;-0.10;1.00
9949;DHT22;5013;51.840;8.276;2022-12-15T11:50:32;0.00;1.00
9949;DHT22;5013;51.840;8.276;2022-12-15T11:56:33;0.30;1.00
9949;DHT22;5013;51.840;8.276;2022-12-15T12:02:32;0.40;1.00
9949;DHT22;5013;51.840;8.276;2022-12-15T12:14:30;0.50;99.90
9949;DHT22;5013;51.840;8.276;2022-12-15T12:17:10;0.60;99.90
9949;DHT22;5013;51.840;8.276;2022-12-15T12:19:48;0.80;79.60
9949;DHT22;5013;51.840;8.276;2022-12-15T12:22:34;0.80;99.90
9949;DHT22;5013;51.840;8.276;2022-12-15T12:25:07;0.90;99.90
9949;DHT22;5013;51.840;8.276;2022-12-15T12:27:39;0.80;1.00
9949;DHT22;5013;51.840;8.276;2022-12-15T12:30:13;0.80;77.50
9949;DHT22;5013;51.840;8.276;2022-12-15T12:38:07;1.00;99.90
9949;DHT22;5013;51.840;8.276;2022-12-15T12:43:10;1.00;99.90
9949;DHT22;5013;51.840;8.276;2022-12-15T12:45:45;0.90;99.90
9949;DHT22;5013;51.840;8.276;2022-12-15T12:48:26;0.90;99.90
9949;DHT22;5013;51.840;8.276;2022-12-15T12:51:23;0.90;94.50
9949;DHT22;5013;51.840;8.276;2022-12-15T12:53:50;0.70;99.90
9949;DHT22;5013;51.840;8.276;2022-12-15T12:56:39;0.70;99.90
9949;DHT22;5013;51.840;8.276;2022-12-15T13:01:54;0.90;59.40
9949;DHT22;5013;51.840;8.276;2022-12-15T13:07:06;0.80;99.90
9949;DHT22;5013;51.840;8.276;2022-12-15T13:12:47;0.90;99.90
9949;DHT22;5013;51.840;8.276;2022-12-15T13:17:54;0.90;99.90
9949;DHT22;5013;51.840;8.276;2022-12-15T13:20:29;0.90;99.90
9949;DHT22;5013;51.840;8.276;2022-12-15T13:23:16;0.80;99.90
9949;DHT22;5013;51.840;8.276;2022-12-15T13:25:44;0.90;99.90
9949;DHT22;5013;51.840;8.276;2022-12-15T13:28:22;0.80;99.90
9949;DHT22;5013;51.840;8.276;2022-12-15T13:46:49;0.60;1.00
9949;DHT22;5013;51.840;8.276;2022-12-15T13:54:57;0.60;1.00
9949;DHT22;5013;51.840;8.276;2022-12-15T13:57:24;0.60;1.00
9949;DHT22;5013;51.840;8.276;2022-12-15T14:00:03;0.60;1.00
9949;DHT22;5013;51.840;8.276;2022-12-15T14:07:45;0.30;1.00
9949;DHT22;5013;51.840;8.276;2022-12-15T14:10:22;0.30;1.00
9949;DHT22;5013;51.840;8.276;2022-12-15T14:12:50;0.30;1.00
9949;DHT22;5013;51.840;8.276;2022-12-15T14:15:18;0.30;1.00
9949;DHT22;5013;51.840;8.276;2022-12-15T14:17:52;0.30;1.00
9949;DHT22;5013;51.840;8.276;2022-12-15T14:20:22;0.20;1.00
9949;DHT22;5013;51.840;8.276;2022-12-15T14:22:48;0.10;99.90
9949;DHT22;5013;51.840;8.276;2022-12-15T14:25:29;0.10;34.40
9949;DHT22;5013;51.840;8.276;2022-12-15T14:27:55;0.20;1.00
9949;DHT22;5013;51.840;8.276;2022-12-15T14:33:13;0.10;1.00
9949;DHT22;5013;51.840;8.276;2022-12-15T14:35:48;0.10;1.00
9949;DHT22;5013;51.840;8.276;2022-12-15T14:38:37;0.00;1.00
9949;DHT22;5013;51.840;8.276;2022-12-15T14:41:04;0.00;1.00
9949;DHT22;5013;51.840;8.276;2022-12-15T14:43:36;-0.10;1.00
9949;DHT22;5013;51.840;8.276;2022-12-15T14:46:10;-0.30;99.90
9949;DHT22;5013;51.840;8.276;2022-12-15T14:48:38;-0.30;99.90
9949;DHT22;5013;51.840;8.276;2022-12-15T14:51:11;-0.40;99.90
9949;DHT22;5013;51.840;8.276;2022-12-15T14:53:39;-0.40;99.90
9949;DHT22;5013;51.840;8.276;2022-12-15T14:56:19;-0.40;99.90
9949;DHT22;5013;51.840;8.276;2022-12-15T15:01:39;-0.60;1.00
9949;DHT22;5013;51.840;8.276;2022-12-15T15:07:29;-0.70;1.00
9949;DHT22;5013;51.840;8.276;2022-12-15T15:09:55;-0.80;1.00
9949;DHT22;5013;51.840;8.276;2022-12-15T15:12:23;-0.90;1.00
9949;DHT22;5013;51.840;8.276;2022-12-15T15:14:59;-1.10;1.00
9949;DHT22;5013;51.840;8.276;2022-12-15T15:20:21;-1.30;1.00
9949;DHT22;5013;51.840;8.276;2022-12-15T15:29:37;-1.60;99.90
9949;DHT22;5013;51.840;8.276;2022-12-15T15:32:18;-1.70;99.90
9949;DHT22;5013;51.840;8.276;2022-12-15T15:34:44;-1.70;99.90
9949;DHT22;5013;51.840;8.276;2022-12-15T15:40:33;-2.00;1.00
9949;DHT22;5013;51.840;8.276;2022-12-15T15:42:59;-2.10;1.00
9949;DHT22;5013;51.840;8.276;2022-12-15T15:45:24;-2.10;1.00
9949;DHT22;5013;51.840;8.276;2022-12-15T15:47:51;-2.20;1.00
9949;DHT22;5013;51.840;8.276;2022-12-15T15:50:24;-2.20;1.00
9949;DHT22;5013;51.840;8.276;2022-12-15T15:52:52;-2.30;1.00
9949;DHT22;5013;51.840;8.276;2022-12-15T15:55:24;-2.30;1.00
9949;DHT22;5013;51.840;8.276;2022-12-15T15:57:51;-2.30;1.00
9949;DHT22;5013;51.840;8.276;2022-12-15T16:00:20;-2.50;1.00
9949;DHT22;5013;51.840;8.276;2022-12-15T16:02:47;-2.50;1.00
9949;DHT22;5013;51.840;8.276;2022-12-15T16:05:13;-2.50;23.60
9949;DHT22;5013;51.840;8.276;2022-12-15T16:07:41;-2.60;99.90
9949;DHT22;5013;51.840;8.276;2022-12-15T16:13:29;-2.60;99.90
9949;DHT22;5013;51.840;8.276;2022-12-15T16:15:55;-2.70;99.90
9949;DHT22;5013;51.840;8.276;2022-12-15T16:18:20;-2.70;1.00
9949;DHT22;5013;51.840;8.276;2022-12-15T16:20:48;-2.70;1.00
9949;DHT22;5013;51.840;8.276;2022-12-15T16:23:17;-2.80;1.00
9949;DHT22;5013;51.840;8.276;2022-12-15T16:25:56;-2.80;1.00
9949;DHT22;5013;51.840;8.276;2022-12-15T16:28:27;-2.80;99.90
9949;DHT22;5013;51.840;8.276;2022-12-15T16:30:53;-2.90;99.90
9949;DHT22;5013;51.840;8.276;2022-12-15T16:33:19;-3.00;99.90
9949;DHT22;5013;51.840;8.276;2022-12-15T16:35:46;-3.00;1.00
9949;DHT22;5013;51.840;8.276;2022-12-15T16:38:27;-3.00;1.00
9949;DHT22;5013;51.840;8.276;2022-12-15T16:40:55;-3.00;1.00
9949;DHT22;5013;51.840;8.276;2022-12-15T16:43:23;-3.10;1.00
9949;DHT22;5013;51.840;8.276;2022-12-15T16:45:51;-3.10;1.00
9949;DHT22;5013;51.840;8.276;2022-12-15T16:48:17;-3.10;1.00
9949;DHT22;5013;51.840;8.276;2022-12-15T16:50:50;-3.20;1.00
9949;DHT22;5013;51.840;8.276;2022-12-15T16:53:19;-3.20;1.00
9949;DHT22;5013;51.840;8.276;2022-12-15T16:55:48;-3.20;1.00
9949;DHT22;5013;51.840;8.276;2022-12-15T16:58:16;-3.20;1.00
9949;DHT22;5013;51.840;8.276;2022-12-15T17:00:43;-3.30;1.00
9949;DHT22;5013;51.840;8.276;2022-12-15T17:03:17;-3.30;1.00
9949;DHT22;5013;51.840;8.276;2022-12-15T17:05:49;-3.30;1.00
9949;DHT22;5013;51.840;8.276;2022-12-15T17:08:19;-3.40;1.00
9949;DHT22;5013;51.840;8.276;2022-12-15T17:10:47;-3.40;1.00
9949;DHT22;5013;51.840;8.276;2022-12-15T17:13:26;-3.50;1.00
9949;DHT22;5013;51.840;8.276;2022-12-15T17:15:53;-3.50;1.00
9949;DHT22;5013;51.840;8.276;2022-12-15T17:18:19;-3.50;1.00
9949;DHT22;5013;51.840;8.276;2022-12-15T17:20:45;-3.50;1.00
9949;DHT22;5013;51.840;8.276;2022-12-15T17:23:21;-3.50;1.00
9949;DHT22;5013;51.840;8.276;2022-12-15T17:25:48;-3.40;1.00
9949;DHT22;5013;51.840;8.276;2022-12-15T17:28:19;-3.70;1.00
9949;DHT22;5013;51.840;8.276;2022-12-15T17:30:47;-3.60;1.00
9949;DHT22;5013;51.840;8.276;2022-12-15T17:33:28;-3.60;1.00
9949;DHT22;5013;51.840;8.276;2022-12-15T17:35:59;-3.70;1.00
9949;DHT22;5013;51.840;8.276;2022-12-15T17:38:26;-3.60;1.00
9949;DHT22;5013;51.840;8.276;2022-12-15T17:40:52;-3.70;1.00
9949;DHT22;5013;51.840;8.276;2022-12-15T17:43:22;-3.70;1.00
9949;DHT22;5013;51.840;8.276;2022-12-15T17:45:48;-3.70;1.00
9949;DHT22;5013;51.840;8.276;2022-12-15T17:48:20;-3.70;1.00
9949;DHT22;5013;51.840;8.276;2022-12-15T17:50:46;-3.70;1.00
9949;DHT22;5013;51.840;8.276;2022-12-15T17:53:15;-3.80;1.00
9949;DHT22;5013;51.840;8.276;2022-12-15T17:55:41;-3.80;99.90
9949;DHT22;5013;51.840;8.276;2022-12-15T18:01:29;-3.90;99.90
9949;DHT22;5013;51.840;8.276;2022-12-15T18:03:55;-3.90;1.00
9949;DHT22;5013;51.840;8.276;2022-12-15T18:06:20;-4.00;1.00
9949;DHT22;5013;51.840;8.276;2022-12-15T18:08:46;-4.00;1.00
9949;DHT22;5013;51.840;8.276;2022-12-15T18:11:14;-4.10;1.00
9949;DHT22;5013;51.840;8.276;2022-12-15T18:17:04;-4.10;1.00
9949;DHT22;5013;51.840;8.276;2022-12-15T18:19:29;-4.10;1.00
9949;DHT22;5013;51.840;8.276;2022-12-15T18:21:55;-4.10;1.00
9949;DHT22;5013;51.840;8.276;2022-12-15T18:24:21;-4.10;99.90
9949;DHT22;5013;51.840;8.276;2022-12-15T18:26:46;-4.10;1.00
9949;DHT22;5013;51.840;8.276;2022-12-15T18:29:14;-4.10;1.00
9949;DHT22;5013;51.840;8.276;2022-12-15T18:31:43;-4.10;99.90
9949;DHT22;5013;51.840;8.276;2022-12-15T18:34:13;-4.20;99.90
9949;DHT22;5013;51.840;8.276;2022-12-15T18:36:40;-4.20;1.00
9949;DHT22;5013;51.840;8.276;2022-12-15T18:39:21;-4.20;1.00
9949;DHT22;5013;51.840;8.276;2022-12-15T18:41:48;-4.40;99.90
9949;DHT22;5013;51.840;8.276;2022-12-15T18:44:21;-4.60;99.90
9949;DHT22;5013;51.840;8.276;2022-12-15T18:46:47;-4.60;1.00
9949;DHT22;5013;51.840;8.276;2022-12-15T18:49:13;-4.70;99.90
9949;DHT22;5013;51.840;8.276;2022-12-15T18:51:39;-4.60;1.00
9949;DHT22;5013;51.840;8.276;2022-12-15T18:54:05;-4.50;1.00
9949;DHT22;5013;51.840;8.276;2022-12-15T18:56:31;-4.50;1.00
9949;DHT22;5013;51.840;8.276;2022-12-15T18:58:56;-4.50;99.90
9949;DHT22;5013;51.840;8.276;2022-12-15T19:01:22;-4.40;99.90
9949;DHT22;5013;51.840;8.276;2022-12-15T19:03:48;-4.30;97.50
9949;DHT22;5013;51.840;8.276;2022-12-15T19:06:23;-4.50;1.00
9949;DHT22;5013;51.840;8.276;2022-12-15T19:08:49;-4.70;99.90
9949;DHT22;5013;51.840;8.276;2022-12-15T19:11:24;-4.70;99.90
9949;DHT22;5013;51.840;8.276;2022-12-15T19:13:58;-4.60;1.00
9949;DHT22;5013;51.840;8.276;2022-12-15T19:16:25;-4.60;99.90
9949;DHT22;5013;51.840;8.276;2022-12-15T19:18:51;-4.70;85.10
9949;DHT22;5013;51.840;8.276;2022-12-15T19:21:36;-4.80;99.90
9949;DHT22;5013;51.840;8.276;2022-12-15T19:24:14;-4.80;99.90
9949;DHT22;5013;51.840;8.276;2022-12-15T19:26:40;-4.70;1.00